Terminal Aerodrome Forecast
Issued by NWS Mt. Holly, NJ

Home | Current Version | Previous Version | Text Only | Print | Product List | Glossary On
Versions: 1 2 3 4 5 6 7 8 9 10 11 12 13 14 15 16 17 18
000
FTUS41 KPHI 032320
TAFACY
TAF
KACY 032320Z 0400/0424 15005KT P6SM FEW100
     FM041400 23010KT P6SM FEW060
     FM041700 21012G20KT P6SM FEW060
     FM042300 19010KT P6SM SKC=

USA.gov is the U.S. government's official web portal to all federal, state and local government web resources and services.